Terminal Aerodrome Forecast
Issued by NWS

Home | Current Version | Previous Version | Text Only | Print | Product List | Glossary On
Versions: 1 2 3 4 5 6 7 8 9 10 11 12 13 14 15 16 17 18
000
FTUS44 KLZK 041100
TAFPBF
TAF
KPBF 041120Z 0412/0512 21010KT P6SM VCSH BKN012 OVC020
     FM041500 01008KT 4SM -RA BR OVC008
     FM041800 01014G20KT 3SM -RA BR OVC003
     FM050000 01016G24KT 2SM -FZRA BR OVC003
     FM050300 02016G24KT 1SM -PL BR OVC003
     FM050900 02018G24KT 1SM -SN BR OVC004=

USA.gov is the U.S. government's official web portal to all federal, state and local government web resources and services.